首页
METAR-TAF:

METAR-TAF

机场 :

Hall Beach, 努那武特, 加拿大

纬度: 68-47N, 经度: 081-15W, 海拔: 8米

当前天气观测

该预报发布于48分钟前的08:00 UTC
风速12节,风向西北
温度 -34°C
湿度 67%
气压 1024 hPa
能見度: 14.5公里
阴天层高于1100英尺

METAR: CYUX 170800Z AUTO 32012KT 9SM OVC011 M34/M38 A3023 RMK SLP239

时间: 03:48 (08:48 UTC)

预报

该预报发布于2小时和10分钟前的06:38 UTC
预报有效从17日的 07点(UTC)到 17日的 19点(UTC)
风速12节,风向西北
能見度: 9.7公里
阴天层高于900英尺
小雪, 轻雾
短暂存在
从 17日的 07点(UTC)到 17日的 19点(UTC)
能見度: 10公里
散云层高于900英尺

TAF: CYUX 170638Z 1707/1719 32012KT 6SM -SN BR OVC009 TEMPO 1707/1719 P6SM NSW SCT009 RMK FCST BASED ON AUTO OBS. NXT FCST BY 171300Z

超过4000个机场的气象观测和天气预报(METAR&TAF报告)。

可查询的气象台以黄色和红色小点在地图上表示。

将鼠标移到小点上方,可查看气象台名称。

然后点击查看天气观测和预报。

如需切换地图:点击带黑十字的绿色按钮放大地图;点击带横线的绿色按钮缩小地图;或者点击绿色箭头查看邻近地区的地图。


METAR-TAF: